SSS Odyssey — WCZ2180 — position and weather

sailwx.info

Track history (hours):
 
Tides and Currents Weather Stations Pressure Air Temp Water Temp Dewpoint Dewpoint Depression Visibility Wind Speed Wind Dir Waves Ship Positions

SSS Odyssey

Ship's website: http://www.sssodyssey.org

Owner: Pacific Harbors Council, BSA, TACOMA, WA. More information available from US FCC via Universal Licensing System and Coast Guard Vessel Documentation Center.

Last reported at 2018-Apr-20 03:31 UTC. Time now 2018-Apr-20 06:45 UTC.
Position N 47°15' W 122°26'.

Length 22 m; draft 4 m.

Type: Ship. MMSI: 367404790.

Date/timePositionNaut miles runAvg speedWind from/ knotsBaromVisibWave heightAir tempDewpointWater temp
2018-Apr-20 03:31N 47°15' W 122°26'0 0.0
2018-Apr-20 03:31N 47°15' W 122°26'2 4.4
2018-Apr-20 03:01N 47°17' W 122°28'1 1.2
2018-Apr-20 02:30N 47°18' W 122°28'1 2.3
2018-Apr-20 02:01N 47°17' W 122°27'2 3.4
2018-Apr-20 01:30N 47°15' W 122°26'0 0.0
2018-Apr-20 01:00N 47°15' W 122°26'0 0.0
2018-Apr-20 00:30N 47°15' W 122°26'0 0.0
2018-Apr-20 00:00N 47°15' W 122°26'0 0.0
2018-Apr-19 23:30N 47°15' W 122°26'0 0.0
2018-Apr-19 23:00N 47°15' W 122°26'0 0.0
2018-Apr-19 22:30N 47°15' W 122°26'0 0.0
2018-Apr-19 22:00N 47°15' W 122°26'0 0.0
2018-Apr-19 21:30N 47°15' W 122°26'0 0.0
2018-Apr-19 21:00N 47°15' W 122°26'0 0.0
2018-Apr-19 20:30N 47°15' W 122°26'0 0.0
2018-Apr-19 20:00N 47°15' W 122°26'0 0.0
2018-Apr-19 19:30N 47°15' W 122°26'0 0.0
2018-Apr-19 19:00N 47°15' W 122°26'0 0.0
2018-Apr-19 18:30N 47°15' W 122°26'0 0.0
2018-Apr-19 18:00N 47°15' W 122°26'0 0.0
2018-Apr-19 17:30N 47°15' W 122°26'0 0.0
2018-Apr-19 17:00N 47°15' W 122°26'0 0.0
2018-Apr-19 16:30N 47°15' W 122°26'0 0.0
2018-Apr-19 16:00N 47°15' W 122°26'0 0.0
2018-Apr-19 15:30N 47°15' W 122°26'0 0.0
2018-Apr-19 15:00N 47°15' W 122°26'0 0.0
2018-Apr-19 14:30N 47°15' W 122°26'0 0.0
2018-Apr-19 13:57N 47°15' W 122°26'0 0.0
2018-Apr-19 13:30N 47°15' W 122°26'0 0.0
2018-Apr-19 13:00N 47°15' W 122°26'0 0.0
2018-Apr-19 12:30N 47°15' W 122°26'0 0.0
2018-Apr-19 12:00N 47°15' W 122°26'0 0.0
2018-Apr-19 11:30N 47°15' W 122°26'0 0.0
2018-Apr-19 10:54N 47°15' W 122°26'0 0.0
2018-Apr-19 10:30N 47°15' W 122°26'0 0.0
2018-Apr-19 10:00N 47°15' W 122°26'0 0.0
2018-Apr-19 09:30N 47°15' W 122°26'0 0.0
2018-Apr-19 09:00N 47°15' W 122°26'0 0.0
2018-Apr-19 08:30N 47°15' W 122°26'0 0.0
2018-Apr-19 08:00N 47°15' W 122°26'0 0.0
2018-Apr-19 07:27N 47°15' W 122°26'0 0.0
2018-Apr-19 07:00N 47°15' W 122°26'0 0.0
2018-Apr-19 06:27N 47°15' W 122°26'0 0.0
2018-Apr-19 06:00N 47°15' W 122°26'0 0.0
2018-Apr-19 05:30N 47°15' W 122°26'0 0.0
2018-Apr-19 05:00N 47°15' W 122°26'0 0.0
2018-Apr-19 04:30N 47°15' W 122°26'0 0.0
2018-Apr-19 04:00N 47°15' W 122°26'0 0.0
2018-Apr-19 03:27N 47°15' W 122°26'0 0.0
2018-Apr-19 03:00N 47°15' W 122°26'0 0.0
2018-Apr-19 02:30N 47°15' W 122°26'0 0.0
2018-Apr-19 02:00N 47°15' W 122°26'0 0.0
2018-Apr-19 01:30N 47°15' W 122°26'0 0.0
2018-Apr-19 01:00N 47°15' W 122°26'0 0.0
2018-Apr-19 00:30N 47°15' W 122°26'0 0.0
2018-Apr-19 00:00N 47°15' W 122°26'0 0.0
2018-Apr-18 23:30N 47°15' W 122°26'0 0.0
2018-Apr-18 23:00N 47°15' W 122°26'0 0.0
2018-Apr-18 22:30N 47°15' W 122°26'0 0.0
2018-Apr-18 22:00N 47°15' W 122°26'0 0.0
2018-Apr-18 21:30N 47°15' W 122°26'0 0.0
2018-Apr-18 21:00N 47°15' W 122°26'0 0.0
2018-Apr-18 20:30N 47°15' W 122°26'0 0.2
2018-Apr-18 20:00N 47°15' W 122°26'0 0.2
2018-Apr-18 19:30N 47°15' W 122°26'0 0.0
2018-Apr-18 19:00N 47°15' W 122°26'2 3.3
2018-Apr-18 18:30N 47°17' W 122°26'2 3.1
2018-Apr-18 18:00N 47°18' W 122°27'1 2.4
2018-Apr-18 17:30N 47°17' W 122°27'2 3.6
2018-Apr-18 16:58N 47°15' W 122°26'0 0.9
2018-Apr-18 16:30N 47°16' W 122°26'3 5.4
2018-Apr-18 16:00N 47°18' W 122°27'1 3.0
2018-Apr-18 15:30N 47°17' W 122°27'2 3.1
2018-Apr-18 14:58N 47°15' W 122°26'0 0.0
2018-Apr-18 14:28N 47°15' W 122°26'0 0.0
2018-Apr-18 13:58N 47°15' W 122°26'0 0.0
2018-Apr-18 13:28N 47°15' W 122°26'0 0.0
2018-Apr-18 12:56N 47°15' W 122°26'0 0.0
2018-Apr-18 12:28N 47°15' W 122°26'0 0.0
2018-Apr-18 11:55N 47°15' W 122°26'0 0.0
2018-Apr-18 11:28N 47°15' W 122°26'0 0.0
2018-Apr-18 10:58N 47°15' W 122°26'0 0.0
2018-Apr-18 10:28N 47°15' W 122°26'0 0.0
2018-Apr-18 09:58N 47°15' W 122°26'0 0.0
2018-Apr-18 09:23N 47°15' W 122°26'0 0.0
2018-Apr-18 08:58N 47°15' W 122°26'0 0.0
2018-Apr-18 08:28N 47°15' W 122°26'0 0.0
2018-Apr-18 07:58N 47°15' W 122°26'0 0.0
2018-Apr-18 07:28N 47°15' W 122°26'0 0.0
2018-Apr-18 06:58N 47°15' W 122°26'0 0.0
2018-Apr-18 06:28N 47°15' W 122°26'0 0.0
2018-Apr-18 05:58N 47°15' W 122°26'0 0.0
2018-Apr-18 05:28N 47°15' W 122°26'0 0.0
2018-Apr-18 04:58N 47°15' W 122°26'0 0.0
2018-Apr-18 04:25N 47°15' W 122°26'0 0.0
2018-Apr-18 03:58N 47°15' W 122°26'0 0.0
2018-Apr-18 03:28N 47°15' W 122°26'0 0.0
2018-Apr-18 02:58N 47°15' W 122°26'0 0.0
2018-Apr-18 02:22N 47°15' W 122°26'0 0.0
2018-Apr-18 01:58N 47°15' W 122°26'0 0.0
2018-Apr-18 01:28N 47°15' W 122°26'0 0.0
2018-Apr-18 00:58N 47°15' W 122°26'0 0.0
2018-Apr-18 00:25N 47°15' W 122°26'0 0.0
2018-Apr-17 23:58N 47°15' W 122°26'0 0.0
2018-Apr-17 23:28N 47°15' W 122°26'0 0.0
2018-Apr-17 22:58N 47°15' W 122°26'0 0.0
2018-Apr-17 22:28N 47°15' W 122°26'0 0.0
2018-Apr-17 21:58N 47°15' W 122°26'0 0.0
2018-Apr-17 21:22N 47°15' W 122°26'0 0.0
2018-Apr-17 20:58N 47°15' W 122°26'0 0.0
2018-Apr-17 20:22N 47°15' W 122°26'0 0.0
2018-Apr-17 19:58N 47°15' W 122°26'0 0.0
2018-Apr-17 19:25N 47°15' W 122°26'0 0.0
2018-Apr-17 18:55N 47°15' W 122°26'0 0.0
2018-Apr-17 18:28N 47°15' W 122°26'0 0.0
2018-Apr-17 17:55N 47°15' W 122°26'0 0.0
2018-Apr-17 17:28N 47°15' W 122°26'0 0.0
2018-Apr-17 16:55N 47°15' W 122°26'0 0.0
2018-Apr-17 16:28N 47°15' W 122°26'0 0.0
2018-Apr-17 15:58N 47°15' W 122°26'0 0.0
2018-Apr-17 15:28N 47°15' W 122°26'0 0.0
2018-Apr-17 14:58N 47°15' W 122°26'0 0.0
2018-Apr-17 14:28N 47°15' W 122°26'0 0.0
2018-Apr-17 13:58N 47°15' W 122°26'0 0.0
2018-Apr-17 13:28N 47°15' W 122°26'0 0.0
2018-Apr-17 12:58N 47°15' W 122°26'0 0.0
2018-Apr-17 12:28N 47°15' W 122°26'0 0.0
2018-Apr-17 11:58N 47°15' W 122°26'0 0.0
2018-Apr-17 11:28N 47°15' W 122°26'0 0.0
2018-Apr-17 10:46N 47°15' W 122°26'0 0.0
2018-Apr-17 10:28N 47°15' W 122°26'0 0.0
2018-Apr-17 09:58N 47°15' W 122°26'0 0.0
2018-Apr-17 09:25N 47°15' W 122°26'0 0.0
2018-Apr-17 08:58N 47°15' W 122°26'0 0.0
2018-Apr-17 08:28N 47°15' W 122°26'0 0.0
2018-Apr-17 07:58N 47°15' W 122°26'0 0.0
2018-Apr-17 07:28N 47°15' W 122°26'0 0.0
2018-Apr-17 06:58N 47°15' W 122°26'0 0.0
2018-Apr-17 06:28N 47°15' W 122°26'0 0.0
2018-Apr-17 05:58N 47°15' W 122°26'0 0.0
2018-Apr-17 05:28N 47°15' W 122°26'0 0.0
2018-Apr-17 04:58N 47°15' W 122°26'0 0.0
2018-Apr-17 04:28N 47°15' W 122°26'0 0.0
2018-Apr-17 03:58N 47°15' W 122°26'0 0.0
2018-Apr-17 03:28N 47°15' W 122°26'0 0.0
2018-Apr-17 02:55N 47°15' W 122°26'0 0.0
2018-Apr-17 02:28N 47°15' W 122°26'0 0.0
2018-Apr-17 01:58N 47°15' W 122°26'0 0.0
2018-Apr-17 01:28N 47°15' W 122°26'0 0.0
2018-Apr-17 00:58N 47°15' W 122°26'0 0.0
2018-Apr-17 00:28N 47°15' W 122°26'0 0.0
2018-Apr-16 23:58N 47°15' W 122°26'0 0.0
2018-Apr-16 23:28N 47°15' W 122°26'0 0.0
2018-Apr-16 22:58N 47°15' W 122°26'0 0.0
2018-Apr-16 22:28N 47°15' W 122°26'0 0.0
2018-Apr-16 21:58N 47°15' W 122°26'0 0.0
2018-Apr-16 21:28N 47°15' W 122°26'0 0.0
2018-Apr-16 20:58N 47°15' W 122°26'0 0.0
2018-Apr-16 20:28N 47°15' W 122°26'0 0.0
2018-Apr-16 19:52N 47°15' W 122°26'0 0.0
2018-Apr-16 19:28N 47°15' W 122°26'0 0.0
2018-Apr-16 18:52N 47°15' W 122°26'0 0.0
2018-Apr-16 18:22N 47°15' W 122°26'0 0.0
2018-Apr-16 17:55N 47°15' W 122°26'0 0.0
2018-Apr-16 17:25N 47°15' W 122°26'0 0.0
2018-Apr-16 16:55N 47°15' W 122°26'0 0.0
2018-Apr-16 16:28N 47°15' W 122°26'0 0.0
2018-Apr-16 15:58N 47°15' W 122°26'0 0.0
2018-Apr-16 15:28N 47°15' W 122°26'0 0.0
2018-Apr-16 14:58N 47°15' W 122°26'0 0.0
2018-Apr-16 14:28N 47°15' W 122°26'0 0.0
2018-Apr-16 13:58N 47°15' W 122°26'0 0.0
2018-Apr-16 13:28N 47°15' W 122°26'0 0.0
2018-Apr-16 12:58N 47°15' W 122°26'0 0.0
2018-Apr-16 12:25N 47°15' W 122°26'0 0.0
2018-Apr-16 11:58N 47°15' W 122°26'0 0.0
2018-Apr-16 11:28N 47°15' W 122°26'0 0.0
2018-Apr-16 10:58N 47°15' W 122°26'0 0.0
2018-Apr-16 10:28N 47°15' W 122°26'0 0.0
2018-Apr-16 09:58N 47°15' W 122°26'0 0.0
2018-Apr-16 09:28N 47°15' W 122°26'0 0.0
2018-Apr-16 08:58N 47°15' W 122°26'0 0.0
2018-Apr-16 08:28N 47°15' W 122°26'0 0.0
2018-Apr-16 07:58N 47°15' W 122°26'0 0.0
2018-Apr-16 07:28N 47°15' W 122°26'0 0.0
2018-Apr-16 06:58N 47°15' W 122°26'0 0.0
2018-Apr-16 06:28N 47°15' W 122°26'0 0.0
2018-Apr-16 05:58N 47°15' W 122°26'0 0.0
2018-Apr-16 05:28N 47°15' W 122°26'0 0.0
2018-Apr-16 04:58N 47°15' W 122°26'0 0.0
2018-Apr-16 04:28N 47°15' W 122°26'0 0.0
2018-Apr-16 03:52N 47°15' W 122°26'0 0.0
2018-Apr-16 03:28N 47°15' W 122°26'0 0.0
2018-Apr-16 02:52N 47°15' W 122°26'0 0.0
2018-Apr-16 02:28N 47°15' W 122°26'0 0.0
2018-Apr-16 01:52N 47°15' W 122°26'0 0.0
2018-Apr-16 01:28N 47°15' W 122°26'0 0.0
2018-Apr-16 00:58N 47°15' W 122°26'0 0.0
2018-Apr-16 00:28N 47°15' W 122°26'0 0.0
2018-Apr-15 23:58N 47°15' W 122°26'0 0.0
2018-Apr-15 23:28N 47°15' W 122°26'0 0.0
2018-Apr-15 22:58N 47°15' W 122°26'0 0.0
2018-Apr-15 22:28N 47°15' W 122°26'0 0.0
2018-Apr-15 21:58N 47°15' W 122°26'0 0.0
2018-Apr-15 21:28N 47°15' W 122°26'0 0.0
2018-Apr-15 20:58N 47°15' W 122°26'0 0.0
2018-Apr-15 20:28N 47°15' W 122°26'0 0.0
2018-Apr-15 19:58N 47°15' W 122°26'0 0.0
2018-Apr-15 19:28N 47°15' W 122°26'0 0.0
2018-Apr-15 18:58N 47°15' W 122°26'0 0.0
2018-Apr-15 18:28N 47°15' W 122°26'0 0.0
2018-Apr-15 17:58N 47°15' W 122°26'0 0.0
2018-Apr-15 17:25N 47°15' W 122°26'0 0.0
2018-Apr-15 16:58N 47°15' W 122°26'0 0.0
2018-Apr-15 16:28N 47°15' W 122°26'0 0.0
2018-Apr-15 15:58N 47°15' W 122°26'0 0.0
2018-Apr-15 15:28N 47°15' W 122°26'0 0.0
2018-Apr-15 14:58N 47°15' W 122°26'0 0.0
2018-Apr-15 14:28N 47°15' W 122°26'0 0.0
2018-Apr-15 13:58N 47°15' W 122°26'0 0.0
2018-Apr-15 13:25N 47°15' W 122°26'0 0.0
2018-Apr-15 12:58N 47°15' W 122°26'0 0.0
2018-Apr-15 12:28N 47°15' W 122°26'0 0.0
2018-Apr-15 11:58N 47°15' W 122°26'0 0.0
2018-Apr-15 11:28N 47°15' W 122°26'0 0.0
2018-Apr-15 10:58N 47°15' W 122°26'0 0.0
2018-Apr-15 10:28N 47°15' W 122°26'0 0.0
2018-Apr-15 09:58N 47°15' W 122°26'0 0.0
2018-Apr-15 09:28N 47°15' W 122°26'0 0.0
2018-Apr-15 08:58N 47°15' W 122°26'0 0.0
2018-Apr-15 08:28N 47°15' W 122°26'0 0.0
2018-Apr-15 08:00N 47°15' W 122°26'0 0.0
2018-Apr-15 07:29N 47°15' W 122°26'0 0.0
2018-Apr-15 06:59N 47°15' W 122°26'0 0.0
2018-Apr-15 06:29N 47°15' W 122°26'0 0.0
2018-Apr-15 05:59N 47°15' W 122°26'0 0.0
2018-Apr-15 05:29N 47°15' W 122°26'0 0.1
2018-Apr-15 04:59N 47°15' W 122°26'0 0.1
2018-Apr-15 04:26N 47°15' W 122°26'0 0.0
2018-Apr-15 03:59N 47°15' W 122°26'0 0.0
2018-Apr-15 03:26N 47°15' W 122°26'0 0.0
2018-Apr-15 02:59N 47°15' W 122°26'0 0.0
2018-Apr-15 02:29N 47°15' W 122°26'0 0.0
2018-Apr-15 01:59N 47°15' W 122°26'0 0.0
2018-Apr-15 01:29N 47°15' W 122°26'0 0.0
2018-Apr-15 00:59N 47°15' W 122°26'0 0.0
2018-Apr-15 00:29N 47°15' W 122°26'0 0.0
2018-Apr-14 23:59N 47°15' W 122°26'0 0.0
2018-Apr-14 23:29N 47°15' W 122°26'0 0.0
2018-Apr-14 22:59N 47°15' W 122°26'0 0.0
2018-Apr-14 22:29N 47°15' W 122°26'0 0.0
2018-Apr-14 21:59N 47°15' W 122°26'0 0.0
2018-Apr-14 21:29N 47°15' W 122°26'0 0.0
2018-Apr-14 20:59N 47°15' W 122°26'0 0.0
2018-Apr-14 20:29N 47°15' W 122°26'0 0.0
2018-Apr-14 19:59N 47°15' W 122°26'0 0.0
2018-Apr-14 19:26N 47°15' W 122°26'0 0.0
2018-Apr-14 18:59N 47°15' W 122°26'0 0.0
2018-Apr-14 18:29N 47°15' W 122°26'0 0.0
2018-Apr-14 17:56N 47°15' W 122°26'0 0.0
2018-Apr-14 17:20N 47°15' W 122°26'0 0.0
2018-Apr-14 16:56N 47°15' W 122°26'0 0.0
2018-Apr-14 16:29N 47°15' W 122°26'0 0.0
2018-Apr-14 15:56N 47°15' W 122°26'0 0.0
2018-Apr-14 15:26N 47°15' W 122°26'0 0.0
2018-Apr-14 14:59N 47°15' W 122°26'0 0.0
2018-Apr-14 14:29N 47°15' W 122°26'0 0.0
2018-Apr-14 13:59N 47°15' W 122°26'0 0.0
2018-Apr-14 13:29N 47°15' W 122°26'0 0.0
2018-Apr-14 12:59N 47°15' W 122°26'0 0.0
2018-Apr-14 12:29N 47°15' W 122°26'0 0.0
2018-Apr-14 11:59N 47°15' W 122°26'0 0.0
2018-Apr-14 11:29N 47°15' W 122°26'0 0.0
2018-Apr-14 10:56N 47°15' W 122°26'0 0.0
2018-Apr-14 10:29N 47°15' W 122°26'0 0.0
2018-Apr-14 09:59N 47°15' W 122°26'0 0.0
2018-Apr-14 09:29N 47°15' W 122°26'0 0.0
2018-Apr-14 08:53N 47°15' W 122°26'0 0.0
2018-Apr-14 08:29N 47°15' W 122°26'0 0.0
2018-Apr-14 07:59N 47°15' W 122°26'0 0.0
2018-Apr-14 07:29N 47°15' W 122°26'0 0.0
2018-Apr-14 06:59N 47°15' W 122°26'0 0.0
2018-Apr-14 06:29N 47°15' W 122°26'0 0.0
2018-Apr-14 04:50N 47°15' W 122°26'0 0.0
2018-Apr-14 04:20N 47°15' W 122°26'0 0.0
2018-Apr-14 03:59N 47°15' W 122°26'0 0.0
2018-Apr-14 03:26N 47°15' W 122°26'0 0.0
2018-Apr-14 02:59N 47°15' W 122°26'0 0.0
2018-Apr-14 02:29N 47°15' W 122°26'0 0.0
2018-Apr-14 01:56N 47°15' W 122°26'0 0.0
2018-Apr-14 01:29N 47°15' W 122°26'0 0.0
2018-Apr-14 00:59N 47°15' W 122°26'0 0.0
2018-Apr-14 00:29N 47°15' W 122°26'0 0.0
2018-Apr-13 23:59N 47°15' W 122°26'0 0.0
2018-Apr-13 23:23N 47°15' W 122°26'0 0.0
2018-Apr-13 22:56N 47°15' W 122°26'0 0.0
2018-Apr-13 22:23N 47°15' W 122°26'0 0.0
2018-Apr-13 21:53N 47°15' W 122°26'0 0.0
2018-Apr-13 21:20N 47°15' W 122°26'0 0.0
2018-Apr-13 20:56N 47°15' W 122°26'0 0.0
2018-Apr-13 20:29N 47°15' W 122°26'0 0.0
2018-Apr-13 19:53N 47°15' W 122°26'0 0.0
2018-Apr-13 19:26N 47°15' W 122°26'0 0.0
2018-Apr-13 18:56N 47°15' W 122°26'0 0.0
2018-Apr-13 18:29N 47°15' W 122°26'0 0.0
2018-Apr-13 17:35N 47°15' W 122°26'0 0.0
2018-Apr-13 17:14N 47°15' W 122°26'0 0.0
2018-Apr-13 16:44N 47°15' W 122°26'0 0.0
2018-Apr-13 16:26N 47°15' W 122°26'0 0.0
2018-Apr-13 15:50N 47°15' W 122°26'0 0.0
2018-Apr-13 15:29N 47°15' W 122°26'0 0.0
2018-Apr-13 14:56N 47°15' W 122°26'0 0.0
2018-Apr-13 14:29N 47°15' W 122°26'0 0.0
2018-Apr-13 13:59N 47°15' W 122°26'0 0.0
2018-Apr-13 13:29N 47°15' W 122°26'0 0.0
2018-Apr-13 12:59N 47°15' W 122°26'0 0.0
2018-Apr-13 12:29N 47°15' W 122°26'0 0.0
2018-Apr-13 11:59N 47°15' W 122°26'0 0.0
2018-Apr-13 11:29N 47°15' W 122°26'0 0.0
2018-Apr-13 10:59N 47°15' W 122°26'0 0.0
2018-Apr-13 10:29N 47°15' W 122°26'0 0.0
2018-Apr-13 09:59N 47°15' W 122°26'0 0.0
2018-Apr-13 09:29N 47°15' W 122°26'0 0.0
2018-Apr-13 08:59N 47°15' W 122°26'0 0.0
2018-Apr-13 08:26N 47°15' W 122°26'0 0.0
2018-Apr-13 07:59N 47°15' W 122°26'0 0.0
2018-Apr-13 07:29N 47°15' W 122°26'0 0.0
2018-Apr-13 06:56N 47°15' W 122°26'0 0.0
2018-Apr-13 06:23N 47°15' W 122°26'0 0.0
2018-Apr-13 05:49N 47°15' W 122°26'0 0.0
2018-Apr-13 05:20N 47°15' W 122°26'0 0.0
2018-Apr-13 04:56N 47°15' W 122°26'0 0.0
2018-Apr-13 04:26N 47°15' W 122°26'0 0.0
2018-Apr-13 03:58N 47°15' W 122°26'0 0.0
2018-Apr-13 03:28N 47°15' W 122°26'0 0.0
2018-Apr-13 02:59N 47°15' W 122°26'0 0.0
2018-Apr-13 02:29N 47°15' W 122°26'0 0.0
2018-Apr-13 01:53N 47°15' W 122°26'0 0.0
2018-Apr-13 01:28N 47°15' W 122°26'0 0.0
2018-Apr-13 00:56N 47°15' W 122°26'0 0.0
2018-Apr-13 00:28N 47°15' W 122°26'0 0.0
2018-Apr-12 23:59N 47°15' W 122°26'0 0.0
2018-Apr-12 23:28N 47°15' W 122°26'0 0.0
2018-Apr-12 22:59N 47°15' W 122°26'0 0.0
2018-Apr-12 22:26N 47°15' W 122°26'0 0.0
2018-Apr-12 21:56N 47°15' W 122°26'0 0.0
2018-Apr-12 21:26N 47°15' W 122°26'0 0.0
2018-Apr-12 20:56N 47°15' W 122°26'0 0.0
2018-Apr-12 20:28N 47°15' W 122°26'0 0.0
2018-Apr-12 19:59N 47°15' W 122°26'0 0.0
2018-Apr-12 19:07N 47°15' W 122°26'0 0.0
2018-Apr-12 18:50N 47°15' W 122°26'0 0.0
2018-Apr-12 18:28N 47°15' W 122°26'0 0.0
2018-Apr-12 17:58N 47°15' W 122°26'0 0.0
2018-Apr-12 17:25N 47°15' W 122°26'0 0.0
2018-Apr-12 16:40N 47°15' W 122°26'0 0.0
2018-Apr-12 16:26N 47°15' W 122°26'0 0.0
2018-Apr-12 15:55N 47°15' W 122°26'0 0.0
2018-Apr-12 15:28N 47°15' W 122°26'0 0.0
2018-Apr-12 14:49N 47°15' W 122°26'0 0.0
2018-Apr-12 14:25N 47°15' W 122°26'0 0.0
2018-Apr-12 13:55N 47°15' W 122°26'0 0.0
2018-Apr-12 13:28N 47°15' W 122°26'0 0.0
2018-Apr-12 12:55N 47°15' W 122°26'0 0.0
2018-Apr-12 12:28N 47°15' W 122°26'0 0.0
2018-Apr-12 11:55N 47°15' W 122°26'0 0.0
2018-Apr-12 11:28N 47°15' W 122°26'0 0.0
2018-Apr-12 10:58N 47°15' W 122°26'0 0.0
2018-Apr-12 10:28N 47°15' W 122°26'0 0.0
2018-Apr-12 09:55N 47°15' W 122°26'0 0.0
2018-Apr-12 07:55N 47°15' W 122°26'0 0.0
2018-Apr-12 07:19N 47°15' W 122°26'0 0.0
2018-Apr-12 06:55N 47°15' W 122°26'0 0.0
2018-Apr-12 05:43N 47°15' W 122°26'0 0.0
2018-Apr-12 05:28N 47°15' W 122°26'0 0.0
2018-Apr-12 04:52N 47°15' W 122°26'0 0.0
2018-Apr-12 04:22N 47°15' W 122°26'0 0.0
2018-Apr-12 03:52N 47°15' W 122°26'0 0.0
2018-Apr-12 03:28N 47°15' W 122°26'0 0.0
2018-Apr-12 02:55N 47°15' W 122°26'0 0.0
2018-Apr-12 02:28N 47°15' W 122°26'0 0.0
2018-Apr-12 01:58N 47°15' W 122°26'0 0.0
2018-Apr-12 01:28N 47°15' W 122°26'0 0.0
2018-Apr-12 00:58N 47°15' W 122°26'0 0.0
2018-Apr-12 00:28N 47°15' W 122°26'0 0.0
2018-Apr-11 23:58N 47°15' W 122°26'0 0.0
2018-Apr-11 23:28N 47°15' W 122°26'0 0.0
2018-Apr-11 22:58N 47°15' W 122°26'0 0.0
2018-Apr-11 22:25N 47°15' W 122°26'0 0.0
2018-Apr-11 21:55N 47°15' W 122°26'0 0.0
2018-Apr-11 21:28N 47°15' W 122°26'0 0.0
2018-Apr-11 20:58N 47°15' W 122°26'0 0.0
2018-Apr-11 20:28N 47°15' W 122°26'0 0.0
2018-Apr-11 19:58N 47°15' W 122°26'0 0.0
2018-Apr-11 19:28N 47°15' W 122°26'0 0.0
2018-Apr-11 18:58N 47°15' W 122°26'0 0.0
2018-Apr-11 18:25N 47°15' W 122°26'0 0.0
2018-Apr-11 17:58N 47°15' W 122°26'0 0.0
2018-Apr-11 17:13N 47°15' W 122°26'0 0.0
2018-Apr-11 16:58N 47°15' W 122°26'0 0.0
2018-Apr-11 16:10N 47°15' W 122°26'0 0.0
2018-Apr-11 15:49N 47°15' W 122°26'0 0.0
2018-Apr-11 15:25N 47°15' W 122°26'0 0.0
2018-Apr-11 14:58N 47°15' W 122°26'0 0.0
2018-Apr-11 14:25N 47°15' W 122°26'0 0.0
2018-Apr-11 13:55N 47°15' W 122°26'0 0.0
2018-Apr-11 13:25N 47°15' W 122°26'0 0.0
2018-Apr-11 12:55N 47°15' W 122°26'0 0.0
2018-Apr-11 12:25N 47°15' W 122°26'0 0.0
2018-Apr-11 11:55N 47°15' W 122°26'0 0.0
2018-Apr-11 11:25N 47°15' W 122°26'0 0.0
2018-Apr-11 10:58N 47°15' W 122°26'0 0.0
2018-Apr-11 10:25N 47°15' W 122°26'0 0.0
2018-Apr-11 09:58N 47°15' W 122°26'0 0.0
2018-Apr-11 09:19N 47°15' W 122°26'0 0.0
2018-Apr-11 08:58N 47°15' W 122°26'0 0.0
2018-Apr-11 08:28N 47°15' W 122°26'0 0.0
2018-Apr-11 08:00N 47°15' W 122°26'0 0.0
2018-Apr-11 07:30N 47°15' W 122°26'0 0.0
2018-Apr-11 07:00N 47°15' W 122°26'0 0.0
2018-Apr-11 06:30N 47°15' W 122°26'0 0.0
2018-Apr-11 06:00N 47°15' W 122°26'0 0.0
2018-Apr-11 05:18N 47°15' W 122°26'0 0.0
2018-Apr-11 05:00N 47°15' W 122°26'0 0.0
2018-Apr-11 04:30N 47°15' W 122°26'0 0.0
2018-Apr-11 04:00N 47°15' W 122°26'0 0.0
2018-Apr-11 03:30N 47°15' W 122°26'0 0.0
2018-Apr-11 03:00N 47°15' W 122°26'0 0.0
2018-Apr-11 02:30N 47°15' W 122°26'0 0.0
2018-Apr-11 02:00N 47°15' W 122°26'0 0.0
2018-Apr-11 01:30N 47°15' W 122°26'0 0.0
2018-Apr-11 01:00N 47°15' W 122°26'0 0.0
2018-Apr-11 00:27N 47°15' W 122°26'0 0.0
2018-Apr-11 00:00N 47°15' W 122°26'0 0.0
2018-Apr-10 23:30N 47°15' W 122°26'0 0.0
2018-Apr-10 23:00N 47°15' W 122°26'0 0.0
2018-Apr-10 22:27N 47°15' W 122°26'0 0.0
2018-Apr-10 22:00N 47°15' W 122°26'0 0.0
2018-Apr-10 21:30N 47°15' W 122°26'0 0.0
2018-Apr-10 21:00N 47°15' W 122°26'0 0.0
2018-Apr-10 20:30N 47°15' W 122°26'0 0.0
2018-Apr-10 20:00N 47°15' W 122°26'0 0.0
2018-Apr-10 19:27N 47°15' W 122°26'0 0.0
2018-Apr-10 19:00N 47°15' W 122°26'0 0.0
2018-Apr-10 18:27N 47°15' W 122°26'0 0.0
2018-Apr-10 18:00N 47°15' W 122°26'0 0.0
2018-Apr-10 17:27N 47°15' W 122°26'0 0.0
2018-Apr-10 16:45N 47°15' W 122°26'0 0.0
2018-Apr-10 16:30N 47°15' W 122°26'0 0.0
2018-Apr-10 16:00N 47°15' W 122°26'0 0.0
2018-Apr-10 15:30N 47°15' W 122°26'0 0.0
2018-Apr-10 15:00N 47°15' W 122°26'0 0.0
2018-Apr-10 14:30N 47°15' W 122°26'0 0.0
2018-Apr-10 14:00N 47°15' W 122°26'0 0.0
2018-Apr-10 13:30N 47°15' W 122°26'0 0.0
2018-Apr-10 13:00N 47°15' W 122°26'0 0.0
2018-Apr-10 12:30N 47°15' W 122°26'0 0.0
2018-Apr-10 11:57N 47°15' W 122°26'0 0.0
2018-Apr-10 11:30N 47°15' W 122°26'0 0.0
2018-Apr-10 11:00N 47°15' W 122°26'0 0.0
2018-Apr-10 10:30N 47°15' W 122°26'0 0.0
2018-Apr-10 10:00N 47°15' W 122°26'0 0.0
2018-Apr-10 09:30N 47°15' W 122°26'0 0.0
2018-Apr-10 09:00N 47°15' W 122°26'0 0.0
2018-Apr-10 08:30N 47°15' W 122°26'0 0.0
2018-Apr-10 07:57N 47°15' W 122°26'0 0.0
2018-Apr-10 07:27N 47°15' W 122°26'0 0.0
2018-Apr-10 07:00N 47°15' W 122°26'0 0.0
2018-Apr-10 06:30N 47°15' W 122°26'0 0.0
2018-Apr-10 06:00N 47°15' W 122°26'0 0.0
2018-Apr-10 05:30N 47°15' W 122°26'0 0.0
2018-Apr-10 05:00N 47°15' W 122°26'0 0.0
2018-Apr-10 04:30N 47°15' W 122°26'0 0.0
2018-Apr-10 04:00N 47°15' W 122°26'  
Track history (hours):
 
Tides and Currents Weather Stations Pressure Air Temp Water Temp Dewpoint Dewpoint Depression Visibility Wind Speed Wind Dir Waves Ship Positions

SSS Odyssey

Ship's website: http://www.sssodyssey.org

Owner: Pacific Harbors Council, BSA, TACOMA, WA. More information available from US FCC via Universal Licensing System and Coast Guard Vessel Documentation Center.

Last reported at 2018-Apr-20 03:31 UTC. Time now 2018-Apr-20 06:45 UTC.
Position N 47°15' W 122°26'.

Length 22 m; draft 4 m.

Type: Ship. MMSI: 367404790.

Date/timePositionNaut miles runAvg speedWind from/ knotsBaromVisibWave heightAir tempDewpointWater temp
2018-Apr-20 03:31N 47°15' W 122°26'0 0.0
2018-Apr-20 03:31N 47°15' W 122°26'2 4.4
2018-Apr-20 03:01N 47°17' W 122°28'1 1.2
2018-Apr-20 02:30N 47°18' W 122°28'1 2.3
2018-Apr-20 02:01N 47°17' W 122°27'2 3.4
2018-Apr-20 01:30N 47°15' W 122°26'0 0.0
2018-Apr-20 01:00N 47°15' W 122°26'0 0.0
2018-Apr-20 00:30N 47°15' W 122°26'0 0.0
2018-Apr-20 00:00N 47°15' W 122°26'0 0.0
2018-Apr-19 23:30N 47°15' W 122°26'0 0.0
2018-Apr-19 23:00N 47°15' W 122°26'0 0.0
2018-Apr-19 22:30N 47°15' W 122°26'0 0.0
2018-Apr-19 22:00N 47°15' W 122°26'0 0.0
2018-Apr-19 21:30N 47°15' W 122°26'0 0.0
2018-Apr-19 21:00N 47°15' W 122°26'0 0.0
2018-Apr-19 20:30N 47°15' W 122°26'0 0.0
2018-Apr-19 20:00N 47°15' W 122°26'0 0.0
2018-Apr-19 19:30N 47°15' W 122°26'0 0.0
2018-Apr-19 19:00N 47°15' W 122°26'0 0.0
2018-Apr-19 18:30N 47°15' W 122°26'0 0.0
2018-Apr-19 18:00N 47°15' W 122°26'0 0.0
2018-Apr-19 17:30N 47°15' W 122°26'0 0.0
2018-Apr-19 17:00N 47°15' W 122°26'0 0.0
2018-Apr-19 16:30N 47°15' W 122°26'0 0.0
2018-Apr-19 16:00N 47°15' W 122°26'0 0.0
2018-Apr-19 15:30N 47°15' W 122°26'0 0.0
2018-Apr-19 15:00N 47°15' W 122°26'0 0.0
2018-Apr-19 14:30N 47°15' W 122°26'0 0.0
2018-Apr-19 13:57N 47°15' W 122°26'0 0.0
2018-Apr-19 13:30N 47°15' W 122°26'0 0.0
2018-Apr-19 13:00N 47°15' W 122°26'0 0.0
2018-Apr-19 12:30N 47°15' W 122°26'0 0.0
2018-Apr-19 12:00N 47°15' W 122°26'0 0.0
2018-Apr-19 11:30N 47°15' W 122°26'0 0.0
2018-Apr-19 10:54N 47°15' W 122°26'0 0.0
2018-Apr-19 10:30N 47°15' W 122°26'0 0.0
2018-Apr-19 10:00N 47°15' W 122°26'0 0.0
2018-Apr-19 09:30N 47°15' W 122°26'0 0.0
2018-Apr-19 09:00N 47°15' W 122°26'0 0.0
2018-Apr-19 08:30N 47°15' W 122°26'0 0.0
2018-Apr-19 08:00N 47°15' W 122°26'0 0.0
2018-Apr-19 07:27N 47°15' W 122°26'0 0.0
2018-Apr-19 07:00N 47°15' W 122°26'0 0.0
2018-Apr-19 06:27N 47°15' W 122°26'0 0.0
2018-Apr-19 06:00N 47°15' W 122°26'0 0.0
2018-Apr-19 05:30N 47°15' W 122°26'0 0.0
2018-Apr-19 05:00N 47°15' W 122°26'0 0.0
2018-Apr-19 04:30N 47°15' W 122°26'0 0.0
2018-Apr-19 04:00N 47°15' W 122°26'0 0.0
2018-Apr-19 03:27N 47°15' W 122°26'0 0.0
2018-Apr-19 03:00N 47°15' W 122°26'0 0.0
2018-Apr-19 02:30N 47°15' W 122°26'0 0.0
2018-Apr-19 02:00N 47°15' W 122°26'0 0.0
2018-Apr-19 01:30N 47°15' W 122°26'0 0.0
2018-Apr-19 01:00N 47°15' W 122°26'0 0.0
2018-Apr-19 00:30N 47°15' W 122°26'0 0.0
2018-Apr-19 00:00N 47°15' W 122°26'0 0.0
2018-Apr-18 23:30N 47°15' W 122°26'0 0.0
2018-Apr-18 23:00N 47°15' W 122°26'0 0.0
2018-Apr-18 22:30N 47°15' W 122°26'0 0.0
2018-Apr-18 22:00N 47°15' W 122°26'0 0.0
2018-Apr-18 21:30N 47°15' W 122°26'0 0.0
2018-Apr-18 21:00N 47°15' W 122°26'0 0.0
2018-Apr-18 20:30N 47°15' W 122°26'0 0.2
2018-Apr-18 20:00N 47°15' W 122°26'0 0.2
2018-Apr-18 19:30N 47°15' W 122°26'0 0.0
2018-Apr-18 19:00N 47°15' W 122°26'2 3.3
2018-Apr-18 18:30N 47°17' W 122°26'2 3.1
2018-Apr-18 18:00N 47°18' W 122°27'1 2.4
2018-Apr-18 17:30N 47°17' W 122°27'2 3.6
2018-Apr-18 16:58N 47°15' W 122°26'0 0.9
2018-Apr-18 16:30N 47°16' W 122°26'3 5.4
2018-Apr-18 16:00N 47°18' W 122°27'1 3.0
2018-Apr-18 15:30N 47°17' W 122°27'2 3.1
2018-Apr-18 14:58N 47°15' W 122°26'0 0.0
2018-Apr-18 14:28N 47°15' W 122°26'0 0.0
2018-Apr-18 13:58N 47°15' W 122°26'0 0.0
2018-Apr-18 13:28N 47°15' W 122°26'0 0.0
2018-Apr-18 12:56N 47°15' W 122°26'0 0.0
2018-Apr-18 12:28N 47°15' W 122°26'0 0.0
2018-Apr-18 11:55N 47°15' W 122°26'0 0.0
2018-Apr-18 11:28N 47°15' W 122°26'0 0.0
2018-Apr-18 10:58N 47°15' W 122°26'0 0.0
2018-Apr-18 10:28N 47°15' W 122°26'0 0.0
2018-Apr-18 09:58N 47°15' W 122°26'0 0.0
2018-Apr-18 09:23N 47°15' W 122°26'0 0.0
2018-Apr-18 08:58N 47°15' W 122°26'0 0.0
2018-Apr-18 08:28N 47°15' W 122°26'0 0.0
2018-Apr-18 07:58N 47°15' W 122°26'0 0.0
2018-Apr-18 07:28N 47°15' W 122°26'0 0.0
2018-Apr-18 06:58N 47°15' W 122°26'0 0.0
2018-Apr-18 06:28N 47°15' W 122°26'0 0.0
2018-Apr-18 05:58N 47°15' W 122°26'0 0.0
2018-Apr-18 05:28N 47°15' W 122°26'0 0.0
2018-Apr-18 04:58N 47°15' W 122°26'0 0.0
2018-Apr-18 04:25N 47°15' W 122°26'0 0.0
2018-Apr-18 03:58N 47°15' W 122°26'0 0.0
2018-Apr-18 03:28N 47°15' W 122°26'0 0.0
2018-Apr-18 02:58N 47°15' W 122°26'0 0.0
2018-Apr-18 02:22N 47°15' W 122°26'0 0.0
2018-Apr-18 01:58N 47°15' W 122°26'0 0.0
2018-Apr-18 01:28N 47°15' W 122°26'0 0.0
2018-Apr-18 00:58N 47°15' W 122°26'0 0.0
2018-Apr-18 00:25N 47°15' W 122°26'0 0.0
2018-Apr-17 23:58N 47°15' W 122°26'0 0.0
2018-Apr-17 23:28N 47°15' W 122°26'0 0.0
2018-Apr-17 22:58N 47°15' W 122°26'0 0.0
2018-Apr-17 22:28N 47°15' W 122°26'0 0.0
2018-Apr-17 21:58N 47°15' W 122°26'0 0.0
2018-Apr-17 21:22N 47°15' W 122°26'0 0.0
2018-Apr-17 20:58N 47°15' W 122°26'0 0.0
2018-Apr-17 20:22N 47°15' W 122°26'0 0.0
2018-Apr-17 19:58N 47°15' W 122°26'0 0.0
2018-Apr-17 19:25N 47°15' W 122°26'0 0.0
2018-Apr-17 18:55N 47°15' W 122°26'0 0.0
2018-Apr-17 18:28N 47°15' W 122°26'0 0.0
2018-Apr-17 17:55N 47°15' W 122°26'0 0.0
2018-Apr-17 17:28N 47°15' W 122°26'0 0.0
2018-Apr-17 16:55N 47°15' W 122°26'0 0.0
2018-Apr-17 16:28N 47°15' W 122°26'0 0.0
2018-Apr-17 15:58N 47°15' W 122°26'0 0.0
2018-Apr-17 15:28N 47°15' W 122°26'0 0.0
2018-Apr-17 14:58N 47°15' W 122°26'0 0.0
2018-Apr-17 14:28N 47°15' W 122°26'0 0.0
2018-Apr-17 13:58N 47°15' W 122°26'0 0.0
2018-Apr-17 13:28N 47°15' W 122°26'0 0.0
2018-Apr-17 12:58N 47°15' W 122°26'0 0.0
2018-Apr-17 12:28N 47°15' W 122°26'0 0.0
2018-Apr-17 11:58N 47°15' W 122°26'0 0.0
2018-Apr-17 11:28N 47°15' W 122°26'0 0.0
2018-Apr-17 10:46N 47°15' W 122°26'0 0.0
2018-Apr-17 10:28N 47°15' W 122°26'0 0.0
2018-Apr-17 09:58N 47°15' W 122°26'0 0.0
2018-Apr-17 09:25N 47°15' W 122°26'0 0.0
2018-Apr-17 08:58N 47°15' W 122°26'0 0.0
2018-Apr-17 08:28N 47°15' W 122°26'0 0.0
2018-Apr-17 07:58N 47°15' W 122°26'0 0.0
2018-Apr-17 07:28N 47°15' W 122°26'0 0.0
2018-Apr-17 06:58N 47°15' W 122°26'0 0.0
2018-Apr-17 06:28N 47°15' W 122°26'0 0.0
2018-Apr-17 05:58N 47°15' W 122°26'0 0.0
2018-Apr-17 05:28N 47°15' W 122°26'0 0.0
2018-Apr-17 04:58N 47°15' W 122°26'0 0.0
2018-Apr-17 04:28N 47°15' W 122°26'0 0.0
2018-Apr-17 03:58N 47°15' W 122°26'0 0.0
2018-Apr-17 03:28N 47°15' W 122°26'0 0.0
2018-Apr-17 02:55N 47°15' W 122°26'0 0.0
2018-Apr-17 02:28N 47°15' W 122°26'0 0.0
2018-Apr-17 01:58N 47°15' W 122°26'0 0.0
2018-Apr-17 01:28N 47°15' W 122°26'0 0.0
2018-Apr-17 00:58N 47°15' W 122°26'0 0.0
2018-Apr-17 00:28N 47°15' W 122°26'0 0.0
2018-Apr-16 23:58N 47°15' W 122°26'0 0.0
2018-Apr-16 23:28N 47°15' W 122°26'0 0.0
2018-Apr-16 22:58N 47°15' W 122°26'0 0.0
2018-Apr-16 22:28N 47°15' W 122°26'0 0.0
2018-Apr-16 21:58N 47°15' W 122°26'0 0.0
2018-Apr-16 21:28N 47°15' W 122°26'0 0.0
2018-Apr-16 20:58N 47°15' W 122°26'0 0.0
2018-Apr-16 20:28N 47°15' W 122°26'0 0.0
2018-Apr-16 19:52N 47°15' W 122°26'0 0.0
2018-Apr-16 19:28N 47°15' W 122°26'0 0.0
2018-Apr-16 18:52N 47°15' W 122°26'0 0.0
2018-Apr-16 18:22N 47°15' W 122°26'0 0.0
2018-Apr-16 17:55N 47°15' W 122°26'0 0.0
2018-Apr-16 17:25N 47°15' W 122°26'0 0.0
2018-Apr-16 16:55N 47°15' W 122°26'0 0.0
2018-Apr-16 16:28N 47°15' W 122°26'0 0.0
2018-Apr-16 15:58N 47°15' W 122°26'0 0.0
2018-Apr-16 15:28N 47°15' W 122°26'0 0.0
2018-Apr-16 14:58N 47°15' W 122°26'0 0.0
2018-Apr-16 14:28N 47°15' W 122°26'0 0.0
2018-Apr-16 13:58N 47°15' W 122°26'0 0.0
2018-Apr-16 13:28N 47°15' W 122°26'0 0.0
2018-Apr-16 12:58N 47°15' W 122°26'0 0.0
2018-Apr-16 12:25N 47°15' W 122°26'0 0.0
2018-Apr-16 11:58N 47°15' W 122°26'0 0.0
2018-Apr-16 11:28N 47°15' W 122°26'0 0.0
2018-Apr-16 10:58N 47°15' W 122°26'0 0.0
2018-Apr-16 10:28N 47°15' W 122°26'0 0.0
2018-Apr-16 09:58N 47°15' W 122°26'0 0.0
2018-Apr-16 09:28N 47°15' W 122°26'0 0.0
2018-Apr-16 08:58N 47°15' W 122°26'0 0.0
2018-Apr-16 08:28N 47°15' W 122°26'0 0.0
2018-Apr-16 07:58N 47°15' W 122°26'0 0.0
2018-Apr-16 07:28N 47°15' W 122°26'0 0.0
2018-Apr-16 06:58N 47°15' W 122°26'0 0.0
2018-Apr-16 06:28N 47°15' W 122°26'0 0.0
2018-Apr-16 05:58N 47°15' W 122°26'0 0.0
2018-Apr-16 05:28N 47°15' W 122°26'0 0.0
2018-Apr-16 04:58N 47°15' W 122°26'0 0.0
2018-Apr-16 04:28N 47°15' W 122°26'0 0.0
2018-Apr-16 03:52N 47°15' W 122°26'0 0.0
2018-Apr-16 03:28N 47°15' W 122°26'0 0.0
2018-Apr-16 02:52N 47°15' W 122°26'0 0.0
2018-Apr-16 02:28N 47°15' W 122°26'0 0.0
2018-Apr-16 01:52N 47°15' W 122°26'0 0.0
2018-Apr-16 01:28N 47°15' W 122°26'0 0.0
2018-Apr-16 00:58N 47°15' W 122°26'0 0.0
2018-Apr-16 00:28N 47°15' W 122°26'0 0.0
2018-Apr-15 23:58N 47°15' W 122°26'0 0.0
2018-Apr-15 23:28N 47°15' W 122°26'0 0.0
2018-Apr-15 22:58N 47°15' W 122°26'0 0.0
2018-Apr-15 22:28N 47°15' W 122°26'0 0.0
2018-Apr-15 21:58N 47°15' W 122°26'0 0.0
2018-Apr-15 21:28N 47°15' W 122°26'0 0.0
2018-Apr-15 20:58N 47°15' W 122°26'0 0.0
2018-Apr-15 20:28N 47°15' W 122°26'0 0.0
2018-Apr-15 19:58N 47°15' W 122°26'0 0.0
2018-Apr-15 19:28N 47°15' W 122°26'0 0.0
2018-Apr-15 18:58N 47°15' W 122°26'0 0.0
2018-Apr-15 18:28N 47°15' W 122°26'0 0.0
2018-Apr-15 17:58N 47°15' W 122°26'0 0.0
2018-Apr-15 17:25N 47°15' W 122°26'0 0.0
2018-Apr-15 16:58N 47°15' W 122°26'0 0.0
2018-Apr-15 16:28N 47°15' W 122°26'0 0.0
2018-Apr-15 15:58N 47°15' W 122°26'0 0.0
2018-Apr-15 15:28N 47°15' W 122°26'0 0.0
2018-Apr-15 14:58N 47°15' W 122°26'0 0.0
2018-Apr-15 14:28N 47°15' W 122°26'0 0.0
2018-Apr-15 13:58N 47°15' W 122°26'0 0.0
2018-Apr-15 13:25N 47°15' W 122°26'0 0.0
2018-Apr-15 12:58N 47°15' W 122°26'0 0.0
2018-Apr-15 12:28N 47°15' W 122°26'0 0.0
2018-Apr-15 11:58N 47°15' W 122°26'0 0.0
2018-Apr-15 11:28N 47°15' W 122°26'0 0.0
2018-Apr-15 10:58N 47°15' W 122°26'0 0.0
2018-Apr-15 10:28N 47°15' W 122°26'0 0.0
2018-Apr-15 09:58N 47°15' W 122°26'0 0.0
2018-Apr-15 09:28N 47°15' W 122°26'0 0.0
2018-Apr-15 08:58N 47°15' W 122°26'0 0.0
2018-Apr-15 08:28N 47°15' W 122°26'0 0.0
2018-Apr-15 08:00N 47°15' W 122°26'0 0.0
2018-Apr-15 07:29N 47°15' W 122°26'0 0.0
2018-Apr-15 06:59N 47°15' W 122°26'0 0.0
2018-Apr-15 06:29N 47°15' W 122°26'0 0.0
2018-Apr-15 05:59N 47°15' W 122°26'0 0.0
2018-Apr-15 05:29N 47°15' W 122°26'0 0.1
2018-Apr-15 04:59N 47°15' W 122°26'0 0.1
2018-Apr-15 04:26N 47°15' W 122°26'0 0.0
2018-Apr-15 03:59N 47°15' W 122°26'0 0.0
2018-Apr-15 03:26N 47°15' W 122°26'0 0.0
2018-Apr-15 02:59N 47°15' W 122°26'0 0.0
2018-Apr-15 02:29N 47°15' W 122°26'0 0.0
2018-Apr-15 01:59N 47°15' W 122°26'0 0.0
2018-Apr-15 01:29N 47°15' W 122°26'0 0.0
2018-Apr-15 00:59N 47°15' W 122°26'0 0.0
2018-Apr-15 00:29N 47°15' W 122°26'0 0.0
2018-Apr-14 23:59N 47°15' W 122°26'0 0.0
2018-Apr-14 23:29N 47°15' W 122°26'0 0.0
2018-Apr-14 22:59N 47°15' W 122°26'0 0.0
2018-Apr-14 22:29N 47°15' W 122°26'0 0.0
2018-Apr-14 21:59N 47°15' W 122°26'0 0.0
2018-Apr-14 21:29N 47°15' W 122°26'0 0.0
2018-Apr-14 20:59N 47°15' W 122°26'0 0.0
2018-Apr-14 20:29N 47°15' W 122°26'0 0.0
2018-Apr-14 19:59N 47°15' W 122°26'0 0.0
2018-Apr-14 19:26N 47°15' W 122°26'0 0.0
2018-Apr-14 18:59N 47°15' W 122°26'0 0.0
2018-Apr-14 18:29N 47°15' W 122°26'0 0.0
2018-Apr-14 17:56N 47°15' W 122°26'0 0.0
2018-Apr-14 17:20N 47°15' W 122°26'0 0.0
2018-Apr-14 16:56N 47°15' W 122°26'0 0.0
2018-Apr-14 16:29N 47°15' W 122°26'0 0.0
2018-Apr-14 15:56N 47°15' W 122°26'0 0.0
2018-Apr-14 15:26N 47°15' W 122°26'0 0.0
2018-Apr-14 14:59N 47°15' W 122°26'0 0.0
2018-Apr-14 14:29N 47°15' W 122°26'0 0.0
2018-Apr-14 13:59N 47°15' W 122°26'0 0.0
2018-Apr-14 13:29N 47°15' W 122°26'0 0.0
2018-Apr-14 12:59N 47°15' W 122°26'0 0.0
2018-Apr-14 12:29N 47°15' W 122°26'0 0.0
2018-Apr-14 11:59N 47°15' W 122°26'0 0.0
2018-Apr-14 11:29N 47°15' W 122°26'0 0.0
2018-Apr-14 10:56N 47°15' W 122°26'0 0.0
2018-Apr-14 10:29N 47°15' W 122°26'0 0.0
2018-Apr-14 09:59N 47°15' W 122°26'0 0.0
2018-Apr-14 09:29N 47°15' W 122°26'0 0.0
2018-Apr-14 08:53N 47°15' W 122°26'0 0.0
2018-Apr-14 08:29N 47°15' W 122°26'0 0.0
2018-Apr-14 07:59N 47°15' W 122°26'0 0.0
2018-Apr-14 07:29N 47°15' W 122°26'0 0.0
2018-Apr-14 06:59N 47°15' W 122°26'0 0.0
2018-Apr-14 06:29N 47°15' W 122°26'0 0.0
2018-Apr-14 04:50N 47°15' W 122°26'0 0.0
2018-Apr-14 04:20N 47°15' W 122°26'0 0.0
2018-Apr-14 03:59N 47°15' W 122°26'0 0.0
2018-Apr-14 03:26N 47°15' W 122°26'0 0.0
2018-Apr-14 02:59N 47°15' W 122°26'0 0.0
2018-Apr-14 02:29N 47°15' W 122°26'0 0.0
2018-Apr-14 01:56N 47°15' W 122°26'0 0.0
2018-Apr-14 01:29N 47°15' W 122°26'0 0.0
2018-Apr-14 00:59N 47°15' W 122°26'0 0.0
2018-Apr-14 00:29N 47°15' W 122°26'0 0.0
2018-Apr-13 23:59N 47°15' W 122°26'0 0.0
2018-Apr-13 23:23N 47°15' W 122°26'0 0.0
2018-Apr-13 22:56N 47°15' W 122°26'0 0.0
2018-Apr-13 22:23N 47°15' W 122°26'0 0.0
2018-Apr-13 21:53N 47°15' W 122°26'0 0.0
2018-Apr-13 21:20N 47°15' W 122°26'0 0.0
2018-Apr-13 20:56N 47°15' W 122°26'0 0.0
2018-Apr-13 20:29N 47°15' W 122°26'0 0.0
2018-Apr-13 19:53N 47°15' W 122°26'0 0.0
2018-Apr-13 19:26N 47°15' W 122°26'0 0.0
2018-Apr-13 18:56N 47°15' W 122°26'0 0.0
2018-Apr-13 18:29N 47°15' W 122°26'0 0.0
2018-Apr-13 17:35N 47°15' W 122°26'0 0.0
2018-Apr-13 17:14N 47°15' W 122°26'0 0.0
2018-Apr-13 16:44N 47°15' W 122°26'0 0.0
2018-Apr-13 16:26N 47°15' W 122°26'0 0.0
2018-Apr-13 15:50N 47°15' W 122°26'0 0.0
2018-Apr-13 15:29N 47°15' W 122°26'0 0.0
2018-Apr-13 14:56N 47°15' W 122°26'0 0.0
2018-Apr-13 14:29N 47°15' W 122°26'0 0.0
2018-Apr-13 13:59N 47°15' W 122°26'0 0.0
2018-Apr-13 13:29N 47°15' W 122°26'0 0.0
2018-Apr-13 12:59N 47°15' W 122°26'0 0.0
2018-Apr-13 12:29N 47°15' W 122°26'0 0.0
2018-Apr-13 11:59N 47°15' W 122°26'0 0.0
2018-Apr-13 11:29N 47°15' W 122°26'0 0.0
2018-Apr-13 10:59N 47°15' W 122°26'0 0.0
2018-Apr-13 10:29N 47°15' W 122°26'0 0.0
2018-Apr-13 09:59N 47°15' W 122°26'0 0.0
2018-Apr-13 09:29N 47°15' W 122°26'0 0.0
2018-Apr-13 08:59N 47°15' W 122°26'0 0.0
2018-Apr-13 08:26N 47°15' W 122°26'0 0.0
2018-Apr-13 07:59N 47°15' W 122°26'0 0.0
2018-Apr-13 07:29N 47°15' W 122°26'0 0.0
2018-Apr-13 06:56N 47°15' W 122°26'0 0.0
2018-Apr-13 06:23N 47°15' W 122°26'0 0.0
2018-Apr-13 05:49N 47°15' W 122°26'0 0.0
2018-Apr-13 05:20N 47°15' W 122°26'0 0.0
2018-Apr-13 04:56N 47°15' W 122°26'0 0.0
2018-Apr-13 04:26N 47°15' W 122°26'0 0.0
2018-Apr-13 03:58N 47°15' W 122°26'0 0.0
2018-Apr-13 03:28N 47°15' W 122°26'0 0.0
2018-Apr-13 02:59N 47°15' W 122°26'0 0.0
2018-Apr-13 02:29N 47°15' W 122°26'0 0.0
2018-Apr-13 01:53N 47°15' W 122°26'0 0.0
2018-Apr-13 01:28N 47°15' W 122°26'0 0.0
2018-Apr-13 00:56N 47°15' W 122°26'0 0.0
2018-Apr-13 00:28N 47°15' W 122°26'0 0.0
2018-Apr-12 23:59N 47°15' W 122°26'0 0.0
2018-Apr-12 23:28N 47°15' W 122°26'0 0.0
2018-Apr-12 22:59N 47°15' W 122°26'0 0.0
2018-Apr-12 22:26N 47°15' W 122°26'0 0.0
2018-Apr-12 21:56N 47°15' W 122°26'0 0.0
2018-Apr-12 21:26N 47°15' W 122°26'0 0.0
2018-Apr-12 20:56N 47°15' W 122°26'0 0.0
2018-Apr-12 20:28N 47°15' W 122°26'0 0.0
2018-Apr-12 19:59N 47°15' W 122°26'0 0.0
2018-Apr-12 19:07N 47°15' W 122°26'0 0.0
2018-Apr-12 18:50N 47°15' W 122°26'0 0.0
2018-Apr-12 18:28N 47°15' W 122°26'0 0.0
2018-Apr-12 17:58N 47°15' W 122°26'0 0.0
2018-Apr-12 17:25N 47°15' W 122°26'0 0.0
2018-Apr-12 16:40N 47°15' W 122°26'0 0.0
2018-Apr-12 16:26N 47°15' W 122°26'0 0.0
2018-Apr-12 15:55N 47°15' W 122°26'0 0.0
2018-Apr-12 15:28N 47°15' W 122°26'0 0.0
2018-Apr-12 14:49N 47°15' W 122°26'0 0.0
2018-Apr-12 14:25N 47°15' W 122°26'0 0.0
2018-Apr-12 13:55N 47°15' W 122°26'0 0.0
2018-Apr-12 13:28N 47°15' W 122°26'0 0.0
2018-Apr-12 12:55N 47°15' W 122°26'0 0.0
2018-Apr-12 12:28N 47°15' W 122°26'0 0.0
2018-Apr-12 11:55N 47°15' W 122°26'0 0.0
2018-Apr-12 11:28N 47°15' W 122°26'0 0.0
2018-Apr-12 10:58N 47°15' W 122°26'0 0.0
2018-Apr-12 10:28N 47°15' W 122°26'0 0.0
2018-Apr-12 09:55N 47°15' W 122°26'0 0.0
2018-Apr-12 07:55N 47°15' W 122°26'0 0.0
2018-Apr-12 07:19N 47°15' W 122°26'0 0.0
2018-Apr-12 06:55N 47°15' W 122°26'0 0.0
2018-Apr-12 05:43N 47°15' W 122°26'0 0.0
2018-Apr-12 05:28N 47°15' W 122°26'0 0.0
2018-Apr-12 04:52N 47°15' W 122°26'0 0.0
2018-Apr-12 04:22N 47°15' W 122°26'0 0.0
2018-Apr-12 03:52N 47°15' W 122°26'0 0.0
2018-Apr-12 03:28N 47°15' W 122°26'0 0.0
2018-Apr-12 02:55N 47°15' W 122°26'0 0.0
2018-Apr-12 02:28N 47°15' W 122°26'0 0.0
2018-Apr-12 01:58N 47°15' W 122°26'0 0.0
2018-Apr-12 01:28N 47°15' W 122°26'0 0.0
2018-Apr-12 00:58N 47°15' W 122°26'0 0.0
2018-Apr-12 00:28N 47°15' W 122°26'0 0.0
2018-Apr-11 23:58N 47°15' W 122°26'0 0.0
2018-Apr-11 23:28N 47°15' W 122°26'0 0.0
2018-Apr-11 22:58N 47°15' W 122°26'0 0.0
2018-Apr-11 22:25N 47°15' W 122°26'0 0.0
2018-Apr-11 21:55N 47°15' W 122°26'0 0.0
2018-Apr-11 21:28N 47°15' W 122°26'0 0.0
2018-Apr-11 20:58N 47°15' W 122°26'0 0.0
2018-Apr-11 20:28N 47°15' W 122°26'0 0.0
2018-Apr-11 19:58N 47°15' W 122°26'0 0.0
2018-Apr-11 19:28N 47°15' W 122°26'0 0.0
2018-Apr-11 18:58N 47°15' W 122°26'0 0.0
2018-Apr-11 18:25N 47°15' W 122°26'0 0.0
2018-Apr-11 17:58N 47°15' W 122°26'0 0.0
2018-Apr-11 17:13N 47°15' W 122°26'0 0.0
2018-Apr-11 16:58N 47°15' W 122°26'0 0.0
2018-Apr-11 16:10N 47°15' W 122°26'0 0.0
2018-Apr-11 15:49N 47°15' W 122°26'0 0.0
2018-Apr-11 15:25N 47°15' W 122°26'0 0.0
2018-Apr-11 14:58N 47°15' W 122°26'0 0.0
2018-Apr-11 14:25N 47°15' W 122°26'0 0.0
2018-Apr-11 13:55N 47°15' W 122°26'0 0.0
2018-Apr-11 13:25N 47°15' W 122°26'0 0.0
2018-Apr-11 12:55N 47°15' W 122°26'0 0.0
2018-Apr-11 12:25N 47°15' W 122°26'0 0.0
2018-Apr-11 11:55N 47°15' W 122°26'0 0.0
2018-Apr-11 11:25N 47°15' W 122°26'0 0.0
2018-Apr-11 10:58N 47°15' W 122°26'0 0.0
2018-Apr-11 10:25N 47°15' W 122°26'0 0.0
2018-Apr-11 09:58N 47°15' W 122°26'0 0.0
2018-Apr-11 09:19N 47°15' W 122°26'0 0.0
2018-Apr-11 08:58N 47°15' W 122°26'0 0.0
2018-Apr-11 08:28N 47°15' W 122°26'0 0.0
2018-Apr-11 08:00N 47°15' W 122°26'0 0.0
2018-Apr-11 07:30N 47°15' W 122°26'0 0.0
2018-Apr-11 07:00N 47°15' W 122°26'0 0.0
2018-Apr-11 06:30N 47°15' W 122°26'0 0.0
2018-Apr-11 06:00N 47°15' W 122°26'0 0.0
2018-Apr-11 05:18N 47°15' W 122°26'0 0.0
2018-Apr-11 05:00N 47°15' W 122°26'0 0.0
2018-Apr-11 04:30N 47°15' W 122°26'0 0.0
2018-Apr-11 04:00N 47°15' W 122°26'0 0.0
2018-Apr-11 03:30N 47°15' W 122°26'0 0.0
2018-Apr-11 03:00N 47°15' W 122°26'0 0.0
2018-Apr-11 02:30N 47°15' W 122°26'0 0.0
2018-Apr-11 02:00N 47°15' W 122°26'0 0.0
2018-Apr-11 01:30N 47°15' W 122°26'0 0.0
2018-Apr-11 01:00N 47°15' W 122°26'0 0.0
2018-Apr-11 00:27N 47°15' W 122°26'0 0.0
2018-Apr-11 00:00N 47°15' W 122°26'0 0.0
2018-Apr-10 23:30N 47°15' W 122°26'0 0.0
2018-Apr-10 23:00N 47°15' W 122°26'0 0.0
2018-Apr-10 22:27N 47°15' W 122°26'0 0.0
2018-Apr-10 22:00N 47°15' W 122°26'0 0.0
2018-Apr-10 21:30N 47°15' W 122°26'0 0.0
2018-Apr-10 21:00N 47°15' W 122°26'0 0.0
2018-Apr-10 20:30N 47°15' W 122°26'0 0.0
2018-Apr-10 20:00N 47°15' W 122°26'0 0.0
2018-Apr-10 19:27N 47°15' W 122°26'0 0.0
2018-Apr-10 19:00N 47°15' W 122°26'0 0.0
2018-Apr-10 18:27N 47°15' W 122°26'0 0.0
2018-Apr-10 18:00N 47°15' W 122°26'0 0.0
2018-Apr-10 17:27N 47°15' W 122°26'0 0.0
2018-Apr-10 16:45N 47°15' W 122°26'0 0.0
2018-Apr-10 16:30N 47°15' W 122°26'0 0.0
2018-Apr-10 16:00N 47°15' W 122°26'0 0.0
2018-Apr-10 15:30N 47°15' W 122°26'0 0.0
2018-Apr-10 15:00N 47°15' W 122°26'0 0.0
2018-Apr-10 14:30N 47°15' W 122°26'0 0.0
2018-Apr-10 14:00N 47°15' W 122°26'0 0.0
2018-Apr-10 13:30N 47°15' W 122°26'0 0.0
2018-Apr-10 13:00N 47°15' W 122°26'0 0.0
2018-Apr-10 12:30N 47°15' W 122°26'0 0.0
2018-Apr-10 11:57N 47°15' W 122°26'0 0.0
2018-Apr-10 11:30N 47°15' W 122°26'0 0.0
2018-Apr-10 11:00N 47°15' W 122°26'0 0.0
2018-Apr-10 10:30N 47°15' W 122°26'0 0.0
2018-Apr-10 10:00N 47°15' W 122°26'0 0.0
2018-Apr-10 09:30N 47°15' W 122°26'0 0.0
2018-Apr-10 09:00N 47°15' W 122°26'0 0.0
2018-Apr-10 08:30N 47°15' W 122°26'0 0.0
2018-Apr-10 07:57N 47°15' W 122°26'0 0.0
2018-Apr-10 07:27N 47°15' W 122°26'0 0.0
2018-Apr-10 07:00N 47°15' W 122°26'0 0.0
2018-Apr-10 06:30N 47°15' W 122°26'0 0.0
2018-Apr-10 06:00N 47°15' W 122°26'0 0.0
2018-Apr-10 05:30N 47°15' W 122°26'0 0.0
2018-Apr-10 05:00N 47°15' W 122°26'0 0.0
2018-Apr-10 04:30N 47°15' W 122°26'0 0.0
2018-Apr-10 04:00N 47°15' W 122°26'  

Dump ship's entire track history